createdAt,value
2019-02-17T00:04:59.591Z,98775.32
2019-02-17T00:10:06.390Z,98779.81
2019-02-17T00:15:11.497Z,98777.66
2019-02-17T00:20:16.234Z,98771.31
2019-02-17T00:25:21.287Z,98774.52
2019-02-17T00:30:26.272Z,98780.89
2019-02-17T00:35:31.516Z,98767.72
2019-02-17T00:40:36.331Z,98769.33
2019-02-17T00:45:41.801Z,98760.66
2019-02-17T00:50:46.533Z,98764.89
2019-02-17T00:55:51.477Z,98761.52
2019-02-17T01:00:57.895Z,98761.28
2019-02-17T01:06:03.115Z,98759.28
2019-02-17T01:11:07.965Z,98755.34
2019-02-17T01:16:12.906Z,98746.59
2019-02-17T01:21:17.655Z,98756.42
2019-02-17T01:26:22.390Z,98747.56
2019-02-17T01:31:27.442Z,98751.06
2019-02-17T01:36:33.194Z,98739.96
2019-02-17T01:41:37.952Z,98726.36
2019-02-17T01:46:44.231Z,98733.34
2019-02-17T01:51:48.867Z,98727.52
2019-02-17T01:56:53.714Z,98732.40
2019-02-17T02:01:58.661Z,98729.63
2019-02-17T02:07:03.302Z,98724.57
2019-02-17T02:12:08.045Z,98725.05
2019-02-17T02:17:12.789Z,98712.47
2019-02-17T02:22:17.425Z,98713.92
2019-02-17T02:27:23.774Z,98712.97
2019-02-17T02:32:30.170Z,98710.81
2019-02-17T02:37:34.930Z,98708.44
2019-02-17T02:42:44.274Z,98714.27
2019-02-17T02:47:50.843Z,98711.36
2019-02-17T02:52:55.195Z,98714.80
2019-02-17T02:57:59.847Z,98719.48
2019-02-17T03:03:06.472Z,98717.20
2019-02-17T03:08:11.170Z,98717.16
2019-02-17T03:13:15.909Z,98715.92
2019-02-17T03:18:20.521Z,98704.45
2019-02-17T03:23:26.057Z,98702.39
2019-02-17T03:28:33.209Z,98703.31
2019-02-17T03:33:39.284Z,98693.02
2019-02-17T03:38:45.354Z,98698.27
2019-02-17T03:43:50.705Z,98688.04
2019-02-17T03:48:56.068Z,98689.11
2019-02-17T03:54:01.938Z,98693.00
2019-02-17T03:59:08.010Z,98688.77
2019-02-17T04:04:12.648Z,98689.06
2019-02-17T04:09:20.461Z,98684.80
2019-02-17T04:14:28.178Z,98673.95
2019-02-17T04:19:33.733Z,98662.42
2019-02-17T04:24:38.314Z,98656.00
2019-02-17T04:29:44.070Z,98651.00
2019-02-17T04:34:48.789Z,98652.04
2019-02-17T04:39:55.162Z,98653.52
2019-02-17T04:45:00.891Z,98659.09
2019-02-17T04:50:08.649Z,98659.39
2019-02-17T04:55:13.281Z,98662.23
2019-02-17T05:00:17.928Z,98667.05
2019-02-17T05:05:22.560Z,98675.22
2019-02-17T05:10:27.308Z,98678.93
2019-02-17T05:15:32.967Z,98689.33
2019-02-17T05:20:37.713Z,98697.41
2019-02-17T05:25:42.965Z,98705.47
2019-02-17T05:30:52.814Z,98705.13
2019-02-17T05:35:54.195Z,98713.83
2019-02-17T05:41:00.468Z,98723.09
2019-02-17T05:46:05.312Z,98728.59
2019-02-17T05:51:10.057Z,98729.86
2019-02-17T05:56:14.800Z,98719.87
2019-02-17T06:01:21.705Z,98717.06
2019-02-17T06:06:30.662Z,98722.45
2019-02-17T06:11:40.277Z,98723.13
2019-02-17T06:16:45.444Z,98725.31
2019-02-17T06:21:50.184Z,98718.48
2019-02-17T06:26:56.066Z,98718.81
2019-02-17T06:32:00.904Z,98722.47
2019-02-17T06:37:08.304Z,98733.88
2019-02-17T06:42:13.255Z,98730.27
2019-02-17T06:47:21.068Z,98733.38
2019-02-17T06:52:25.706Z,98736.51
2019-02-17T06:57:33.459Z,98737.95
2019-02-17T07:02:38.673Z,98735.55
2019-02-17T07:07:43.654Z,98736.74
2019-02-17T07:12:49.041Z,98741.88
2019-02-17T07:17:56.486Z,98744.11
2019-02-17T07:23:01.556Z,98739.90
2019-02-17T07:28:08.130Z,98739.11
2019-02-17T07:33:13.942Z,98743.60
2019-02-17T07:38:18.934Z,98743.44
2019-02-17T07:43:25.520Z,98742.67
2019-02-17T07:48:30.401Z,98741.75
2019-02-17T07:53:36.053Z,98737.33
2019-02-17T07:58:41.193Z,98724.77
2019-02-17T08:03:46.492Z,98730.17
2019-02-17T08:08:52.792Z,98719.40
2019-02-17T08:13:58.804Z,98712.73
2019-02-17T08:19:04.792Z,98711.92
2019-02-17T08:24:11.059Z,98700.45
2019-02-17T08:29:15.786Z,98705.77
2019-02-17T08:34:22.061Z,98699.38
2019-02-17T08:39:27.626Z,98700.85
2019-02-17T08:44:32.583Z,98701.20
2019-02-17T08:49:37.424Z,98686.56
2019-02-17T08:54:43.805Z,98694.17
2019-02-17T08:59:51.114Z,98696.42
2019-02-17T09:04:57.543Z,98692.16
2019-02-17T09:10:02.570Z,98690.41
2019-02-17T09:15:09.802Z,98685.60
2019-02-17T09:20:17.858Z,98687.60
2019-02-17T09:25:22.598Z,98684.58
2019-02-17T09:30:28.487Z,98674.33
2019-02-17T09:35:33.320Z,98675.19
2019-02-17T09:40:39.814Z,98672.59
2019-02-17T09:45:44.651Z,98671.30
2019-02-17T09:50:50.519Z,98666.74
2019-02-17T09:55:55.868Z,98658.17
2019-02-17T10:01:00.729Z,98653.10
2019-02-17T10:06:06.277Z,98646.81
2019-02-17T10:11:12.305Z,98636.91
2019-02-17T10:16:17.018Z,98624.02
2019-02-17T10:21:23.273Z,98612.92
2019-02-17T10:26:30.678Z,98603.96
2019-02-17T10:31:35.506Z,98596.02
2019-02-17T10:36:40.264Z,98588.94
2019-02-17T10:41:46.122Z,98569.33
2019-02-17T10:46:50.987Z,98567.67
2019-02-17T10:51:55.738Z,98552.83
2019-02-17T10:57:00.785Z,98544.73
2019-02-17T11:02:05.514Z,98533.59
2019-02-17T11:07:11.901Z,98531.40
2019-02-17T11:12:16.642Z,98521.87
2019-02-17T11:17:23.641Z,98510.61
2019-02-17T11:22:28.889Z,98502.14
2019-02-17T11:27:34.847Z,98487.33
2019-02-17T11:32:41.244Z,98475.64
2019-02-17T11:37:47.735Z,98467.26
2019-02-17T11:42:52.578Z,98458.78
2019-02-17T11:47:57.323Z,98454.97
2019-02-17T11:53:03.701Z,98449.31
2019-02-17T11:58:09.795Z,98443.58
2019-02-17T12:03:14.724Z,98433.88
2019-02-17T12:08:19.680Z,98428.16
2019-02-17T12:13:26.465Z,98419.86
2019-02-17T12:18:33.561Z,98409.13
2019-02-17T12:23:44.040Z,98398.44
2019-02-17T12:29:02.557Z,98390.22
2019-02-17T12:34:07.216Z,98386.59
2019-02-17T12:39:11.893Z,98373.95
2019-02-17T12:44:16.738Z,98366.23
2019-02-17T12:49:21.642Z,98358.62
2019-02-17T12:54:29.377Z,98350.23
2019-02-17T12:59:36.271Z,98346.36
2019-02-17T13:04:41.786Z,98348.63
2019-02-17T13:09:46.496Z,98341.98
2019-02-17T13:14:54.820Z,98336.17
2019-02-17T13:20:00.996Z,98331.73
2019-02-17T13:25:09.038Z,98322.77
2019-02-17T13:30:23.335Z,98316.58
2019-02-17T13:35:28.408Z,98313.75
2019-02-17T13:40:33.183Z,98308.39
2019-02-17T13:45:38.650Z,98308.29
2019-02-17T13:50:43.404Z,98309.27
2019-02-17T13:55:49.283Z,98306.12
2019-02-17T14:00:54.619Z,98298.36
2019-02-17T14:05:59.927Z,98296.63
2019-02-17T14:11:05.067Z,98291.38
2019-02-17T14:16:11.411Z,98284.15
2019-02-17T14:21:17.946Z,98284.41
2019-02-17T14:26:23.304Z,98280.83
2019-02-17T14:31:28.632Z,98273.50
2019-02-17T14:36:33.937Z,98267.27
2019-02-17T14:41:41.383Z,98270.30
2019-02-17T14:46:46.902Z,98263.25
2019-02-17T14:51:51.880Z,98262.72
2019-02-17T14:56:56.924Z,98265.44
2019-02-17T15:02:02.284Z,98262.45
2019-02-17T15:07:12.017Z,98263.40
2019-02-17T15:12:19.045Z,98264.42
2019-02-17T15:17:25.019Z,98267.60
2019-02-17T15:22:29.877Z,98270.97
2019-02-17T15:27:35.861Z,98278.16
2019-02-17T15:32:40.688Z,98274.86
2019-02-17T15:37:45.632Z,98283.47
2019-02-17T15:42:50.373Z,98290.88
2019-02-17T15:47:59.835Z,98299.01
2019-02-17T15:53:04.995Z,98298.12
2019-02-17T15:58:10.281Z,98306.72
2019-02-17T16:03:15.308Z,98308.14
2019-02-17T16:08:21.664Z,98312.99
2019-02-17T16:13:26.517Z,98317.45
2019-02-17T16:18:32.514Z,98320.42
2019-02-17T16:23:37.443Z,98323.77
2019-02-17T16:28:43.717Z,98334.81
2019-02-17T16:33:48.461Z,98344.22
2019-02-17T16:38:53.454Z,98348.91
2019-02-17T16:43:59.789Z,98351.61
2019-02-17T16:49:07.701Z,98347.75
2019-02-17T16:54:12.811Z,98355.34
2019-02-17T16:59:17.607Z,98365.55
2019-02-17T17:04:22.963Z,98370.09
2019-02-17T17:09:27.902Z,98371.32
2019-02-17T17:14:32.743Z,98375.63
2019-02-17T17:19:37.972Z,98379.11
2019-02-17T17:24:42.952Z,98375.84
2019-02-17T17:29:47.801Z,98384.03
2019-02-17T17:34:58.823Z,98386.05
2019-02-17T17:40:00.214Z,98390.14
2019-02-17T17:45:16.101Z,98389.93
2019-02-17T17:50:22.464Z,98393.77
2019-02-17T17:55:29.535Z,98388.16
2019-02-17T18:00:37.152Z,98391.59
2019-02-17T18:05:41.887Z,98393.20
2019-02-17T18:10:46.834Z,98395.57
2019-02-17T18:15:51.804Z,98393.70
2019-02-17T18:20:56.842Z,98391.16
2019-02-17T18:26:01.579Z,98389.72
2019-02-17T18:31:06.518Z,98385.31
2019-02-17T18:36:11.510Z,98383.59
2019-02-17T18:41:16.299Z,98387.34
2019-02-17T18:46:20.971Z,98390.42
2019-02-17T18:51:26.533Z,98394.31
2019-02-17T18:56:32.038Z,98402.04
2019-02-17T19:01:36.852Z,98402.66
2019-02-17T19:06:42.588Z,98401.00
2019-02-17T19:11:47.535Z,98400.16
2019-02-17T19:16:52.487Z,98409.39
2019-02-17T19:21:58.511Z,98400.91
2019-02-17T19:27:03.278Z,98406.39
2019-02-17T19:32:10.637Z,98406.73
2019-02-17T19:37:15.692Z,98406.84
2019-02-17T19:42:20.613Z,98406.94
2019-02-17T19:47:27.207Z,98402.45
2019-02-17T19:52:33.783Z,98402.92
2019-02-17T19:57:40.477Z,98394.75
2019-02-17T20:02:50.116Z,98402.72
2019-02-17T20:07:54.785Z,98407.48
2019-02-17T20:12:59.810Z,98409.84
2019-02-17T20:18:04.446Z,98407.91
2019-02-17T20:23:09.192Z,98406.08
2019-02-17T20:28:13.830Z,98405.59
2019-02-17T20:33:18.785Z,98409.72
2019-02-17T20:38:24.110Z,98407.77
2019-02-17T20:43:30.212Z,98409.14
2019-02-17T20:48:36.484Z,98410.74
2019-02-17T20:53:41.259Z,98420.12
2019-02-17T20:58:47.609Z,98422.73
2019-02-17T21:03:53.170Z,98417.11
2019-02-17T21:08:58.478Z,98418.92
2019-02-17T21:14:03.588Z,98415.94
2019-02-17T21:19:08.220Z,98423.52
2019-02-17T21:24:14.399Z,98421.47
2019-02-17T21:29:19.242Z,98418.52
2019-02-17T21:34:24.291Z,98417.89
2019-02-17T21:39:29.853Z,98419.78
2019-02-17T21:44:35.546Z,98430.00
2019-02-17T21:49:40.367Z,98422.27
2019-02-17T21:54:45.113Z,98422.51
2019-02-17T21:59:49.849Z,98422.58
2019-02-17T22:04:54.693Z,98422.59
2019-02-17T22:10:00.758Z,98419.26
2019-02-17T22:15:09.480Z,98416.84
2019-02-17T22:20:15.001Z,98410.16
2019-02-17T22:25:19.917Z,98418.17
2019-02-17T22:30:24.656Z,98411.31
2019-02-17T22:35:29.395Z,98409.28
2019-02-17T22:40:34.149Z,98413.84
2019-02-17T22:45:38.876Z,98411.28
2019-02-17T22:50:43.727Z,98400.53
2019-02-17T22:55:48.578Z,98403.80
2019-02-17T23:01:03.544Z,98403.19
2019-02-17T23:06:09.931Z,98404.12
2019-02-17T23:11:15.083Z,98406.09
2019-02-17T23:16:19.867Z,98398.71
2019-02-17T23:21:24.680Z,98397.55
2019-02-17T23:26:29.426Z,98390.41
2019-02-17T23:31:35.177Z,98381.30
2019-02-17T23:36:40.128Z,98378.50
2019-02-17T23:41:44.877Z,98379.55
2019-02-17T23:46:49.523Z,98389.92
2019-02-17T23:51:54.357Z,98381.78
2019-02-17T23:57:00.430Z,98386.58
